Time;durP1;ratioP1;P1;durP2;ratioP2;P2;SDS_P1;SDS_P2;PMS_P1;PMS_P2;Temp;Humidity;BMP_temperature;BMP_pressure;BME280_temperature;BME280_humidity;BME280_pressure;Samples;Min_cycle;Max_cycle;Signal;HPM_P1;HPM_P2
2023/03/07 00:00:01;;;;;;;32.77;18.07;;;4.90;99.90;;;;;;4913759;29;20187;-69
2023/03/07 00:02:27;;;;;;;30.43;18.70;;;4.70;99.90;;;;;;4907403;29;20663;-69
2023/03/07 00:04:52;;;;;;;33.03;18.23;;;4.90;99.90;;;;;;4902469;29;20451;-69
2023/03/07 00:07:18;;;;;;;30.20;17.53;;;4.90;99.90;;;;;;4898022;29;20188;-69
2023/03/07 00:09:43;;;;;;;30.87;18.60;;;4.90;99.90;;;;;;4902684;29;20252;-69
2023/03/07 00:12:10;;;;;;;34.37;19.33;;;4.80;99.90;;;;;;4891418;29;20554;-68
2023/03/07 00:14:36;;;;;;;28.70;17.80;;;4.90;99.90;;;;;;4904970;29;20232;-70
2023/03/07 00:17:01;;;;;;;26.37;16.20;;;4.90;99.90;;;;;;4900010;29;20444;-70
2023/03/07 00:19:27;;;;;;;29.90;15.93;;;5.00;99.90;;;;;;4906507;29;20206;-70
2023/03/07 00:21:52;;;;;;;26.87;15.10;;;5.00;99.90;;;;;;4911599;29;20283;-70
2023/03/07 00:24:18;;;;;;;24.10;14.20;;;5.10;99.90;;;;;;4913708;29;20194;-70
2023/03/07 00:26:43;;;;;;;29.53;16.70;;;5.10;99.90;;;;;;4912834;29;20198;-71
2023/03/07 00:29:09;;;;;;;23.83;14.73;;;5.10;99.90;;;;;;4913048;29;20535;-70
2023/03/07 00:31:36;;;;;;;22.00;14.80;;;5.10;99.90;;;;;;4903649;29;20235;-70
2023/03/07 00:34:02;;;;;;;25.83;16.27;;;5.10;99.90;;;;;;4901485;29;20484;-70
2023/03/07 00:36:27;;;;;;;24.53;14.80;;;5.10;99.90;;;;;;4907588;29;20502;-70
2023/03/07 00:38:54;;;;;;;20.57;13.73;;;5.20;99.90;;;;;;4912976;29;20440;-70
2023/03/07 00:41:25;;;;;;;24.83;13.50;;;5.20;99.90;;;;;;4912608;29;20185;-70
2023/03/07 00:43:51;;;;;;;23.70;14.17;;;5.30;99.90;;;;;;4910182;29;20845;-70
2023/03/07 00:46:18;;;;;;;25.50;14.30;;;5.20;99.90;;;;;;4904784;29;20436;-71
2023/03/07 00:48:44;;;;;;;21.40;14.93;;;5.10;99.90;;;;;;4902009;29;20448;-71
2023/03/07 00:51:12;;;;;;;20.10;14.30;;;5.20;99.90;;;;;;4907496;29;20925;-70
2023/03/07 00:53:38;;;;;;;19.90;13.40;;;5.30;99.90;;;;;;4913315;29;20484;-70
2023/03/07 00:56:21;;;;;;;19.00;11.67;;;5.30;99.90;;;;;;4917459;29;20439;-70
2023/03/07 00:58:48;;;;;;;25.73;13.17;;;5.40;99.90;;;;;;4906549;29;20442;-69
2023/03/07 01:01:16;;;;;;;15.50;10.37;;;5.40;99.90;;;;;;4914842;29;20435;-71
2023/03/07 01:03:42;;;;;;;17.70;10.20;;;5.40;99.90;;;;;;4911743;29;20434;-71
2023/03/07 01:06:11;;;;;;;17.13;10.50;;;5.50;99.90;;;;;;4913078;29;20482;-71
2023/03/07 01:08:37;;;;;;;15.30;10.83;;;5.50;99.90;;;;;;4915296;29;20183;-71
2023/03/07 01:11:04;;;;;;;16.40;9.13;;;5.60;99.90;;;;;;4914385;29;20920;-70
2023/03/07 01:13:31;;;;;;;14.63;8.63;;;5.60;99.90;;;;;;4911491;29;20193;-71
2023/03/07 01:16:07;;;;;;;11.27;7.80;;;5.70;99.90;;;;;;4917039;29;20576;-71
2023/03/07 01:18:32;;;;;;;11.47;8.80;;;5.80;99.90;;;;;;4914641;29;20436;-70
2023/03/07 01:20:58;;;;;;;12.90;9.67;;;5.80;99.90;;;;;;4912876;29;20486;-70
2023/03/07 01:23:24;;;;;;;13.30;8.43;;;5.80;99.90;;;;;;4914206;29;20183;-70
2023/03/07 01:25:49;;;;;;;14.47;8.83;;;5.90;99.90;;;;;;4916224;29;20206;-70
2023/03/07 01:28:15;;;;;;;13.10;7.97;;;5.80;99.90;;;;;;4913593;29;20180;-71
2023/03/07 01:30:41;;;;;;;10.73;7.50;;;5.90;99.90;;;;;;4913399;29;20188;-70
2023/03/07 01:33:08;;;;;;;10.13;7.30;;;5.90;99.90;;;;;;4917937;29;20207;-71
2023/03/07 01:35:38;;;;;;;11.57;8.40;;;6.00;99.90;;;;;;4914471;29;20196;-71
2023/03/07 01:38:03;;;;;;;11.30;6.87;;;5.90;99.90;;;;;;4910024;29;20434;-71
2023/03/07 01:40:29;;;;;;;9.90;6.23;;;6.00;99.90;;;;;;4917337;29;20853;-71
2023/03/07 01:43:20;;;;;;;8.30;6.37;;;6.00;99.90;;;;;;4915335;29;20207;-71
2023/03/07 01:45:49;;;;;;;8.80;6.30;;;6.00;99.90;;;;;;4912390;29;20180;-71
2023/03/07 01:48:14;;;;;;;8.87;5.20;;;6.00;99.90;;;;;;4915463;29;20802;-71
2023/03/07 01:50:41;;;;;;;7.53;6.10;;;6.00;99.90;;;;;;4917600;29;20435;-71
2023/03/07 01:53:08;;;;;;;8.73;6.47;;;6.10;99.90;;;;;;4912369;29;20207;-71
2023/03/07 01:55:35;;;;;;;7.50;5.60;;;6.00;99.90;;;;;;4914406;29;20428;-71
2023/03/07 01:58:07;;;;;;;8.33;6.53;;;6.00;99.90;;;;;;4916980;29;20443;-72
2023/03/07 02:00:35;;;;;;;9.77;6.87;;;6.10;99.90;;;;;;4911329;29;20432;-71
2023/03/07 02:03:09;;;;;;;9.53;6.03;;;6.00;99.90;;;;;;4904573;29;20486;-71
2023/03/07 02:05:40;;;;;;;8.90;5.47;;;6.00;99.90;;;;;;4908100;29;20471;-72
2023/03/07 02:08:12;;;;;;;8.50;6.90;;;6.00;99.90;;;;;;4913770;29;20431;-72
2023/03/07 02:10:39;;;;;;;9.57;6.73;;;6.10;99.90;;;;;;4899992;29;20778;-72
2023/03/07 02:13:04;;;;;;;8.90;5.90;;;6.10;99.90;;;;;;4904501;29;20472;-72
2023/03/07 02:15:33;;;;;;;7.80;5.70;;;6.10;99.90;;;;;;4909808;29;20482;-72
2023/03/07 02:17:58;;;;;;;9.33;6.10;;;6.20;99.90;;;;;;4915292;29;20187;-71
2023/03/07 02:20:42;;;;;;;10.40;7.40;;;6.20;99.90;;;;;;4904234;29;20523;-71
2023/03/07 02:23:12;;;;;;;8.30;6.67;;;6.10;99.90;;;;;;4905254;29;20192;-71
2023/03/07 02:25:51;;;;;;;7.93;6.20;;;6.10;99.90;;;;;;4904612;29;20432;-70
2023/03/07 02:28:18;;;;;;;7.23;6.07;;;6.20;99.90;;;;;;4902460;29;20435;-70
2023/03/07 02:30:54;;;;;;;8.37;6.60;;;6.20;99.90;;;;;;4908988;29;20432;-72
2023/03/07 02:33:23;;;;;;;6.93;5.10;;;6.10;99.90;;;;;;4914793;29;20982;-71
2023/03/07 02:35:54;;;;;;;8.33;6.30;;;6.10;99.90;;;;;;4914954;29;20524;-71
2023/03/07 02:38:21;;;;;;;8.73;6.17;;;6.20;99.90;;;;;;4907633;29;20971;-70
2023/03/07 02:40:47;;;;;;;6.37;5.63;;;6.30;99.90;;;;;;4913069;29;20494;-69
2023/03/07 02:43:13;;;;;;;6.97;5.67;;;6.20;99.90;;;;;;4916662;29;20468;-70
2023/03/07 02:45:38;;;;;;;7.73;6.00;;;6.20;99.90;;;;;;4911282;29;20226;-71
2023/03/07 02:48:04;;;;;;;6.03;4.90;;;6.20;99.90;;;;;;4906389;29;20664;-71
2023/03/07 02:50:30;;;;;;;6.97;4.87;;;6.20;99.90;;;;;;4900608;29;20184;-71
2023/03/07 02:52:55;;;;;;;6.97;4.90;;;6.30;99.90;;;;;;4903657;29;20559;-72
2023/03/07 02:55:21;;;;;;;6.57;4.83;;;6.20;99.90;;;;;;4908665;29;20533;-71
2023/03/07 02:57:47;;;;;;;4.23;3.53;;;6.20;99.90;;;;;;4914307;29;20290;-71
2023/03/07 03:00:13;;;;;;;4.50;3.43;;;6.20;99.90;;;;;;4915069;29;20476;-72
2023/03/07 03:02:39;;;;;;;4.17;3.70;;;6.30;99.90;;;;;;4909552;29;20239;-72
2023/03/07 03:05:05;;;;;;;4.10;3.40;;;6.20;99.90;;;;;;4904233;29;20448;-72
2023/03/07 03:07:30;;;;;;;4.30;3.50;;;6.20;99.90;;;;;;4899950;29;20689;-72
2023/03/07 03:09:56;;;;;;;5.83;4.10;;;6.30;99.90;;;;;;4904541;29;20472;-72
2023/03/07 03:12:22;;;;;;;5.70;4.10;;;6.20;99.90;;;;;;4910203;29;20223;-72
2023/03/07 03:14:47;;;;;;;4.47;3.67;;;6.30;99.90;;;;;;4914919;29;20491;-72
2023/03/07 03:17:13;;;;;;;5.87;4.00;;;6.30;99.90;;;;;;4913475;29;20194;-72
2023/03/07 03:19:38;;;;;;;4.13;3.60;;;6.40;99.90;;;;;;4907877;29;20195;-72
2023/03/07 03:22:04;;;;;;;5.33;3.67;;;6.20;99.90;;;;;;4902838;29;20668;-72
2023/03/07 05:32:17;;;;;;;9.23;7.10;;;6.20;99.90;;;;;;5085536;23;20562;-70
2023/03/07 05:34:45;;;;;;;8.67;7.50;;;6.20;99.90;;;;;;4896799;29;20515;-72
2023/03/07 05:37:11;;;;;;;11.70;7.20;;;6.30;99.90;;;;;;4885746;29;20209;-73
2023/03/07 05:39:37;;;;;;;9.07;7.37;;;6.30;99.90;;;;;;4890659;29;20445;-71
2023/03/07 05:42:03;;;;;;;9.27;7.70;;;6.30;99.90;;;;;;4894223;29;20908;-71
2023/03/07 05:44:29;;;;;;;8.60;7.70;;;6.40;99.90;;;;;;4889776;29;21217;-69
2023/03/07 05:46:54;;;;;;;9.80;7.40;;;6.40;99.90;;;;;;4892948;29;20808;-69
2023/03/07 05:49:20;;;;;;;8.90;7.10;;;6.40;99.90;;;;;;4885092;29;20276;-69
2023/03/07 05:51:45;;;;;;;7.90;6.97;;;6.40;99.90;;;;;;4896509;29;20216;-69
2023/03/07 05:54:11;;;;;;;8.63;7.40;;;6.40;99.90;;;;;;4889832;29;20220;-69
2023/03/07 05:56:36;;;;;;;9.70;6.73;;;6.40;99.90;;;;;;4880804;29;20188;-69
2023/03/07 05:59:03;;;;;;;8.80;7.50;;;6.40;99.90;;;;;;4891398;29;20200;-69
2023/03/07 06:01:28;;;;;;;9.03;7.67;;;6.40;99.90;;;;;;4894729;29;20203;-69
2023/03/07 06:03:54;;;;;;;8.60;6.87;;;6.40;99.90;;;;;;4896019;29;20439;-69
2023/03/07 06:06:19;;;;;;;10.00;8.13;;;6.40;99.90;;;;;;4895398;29;20195;-70
2023/03/07 06:08:45;;;;;;;9.90;8.20;;;6.40;99.90;;;;;;4892800;29;20216;-70
2023/03/07 06:11:10;;;;;;;10.30;7.60;;;6.30;99.90;;;;;;4895036;29;20189;-69
2023/03/07 06:13:36;;;;;;;8.53;6.60;;;6.40;99.90;;;;;;4894197;29;20221;-69
2023/03/07 06:16:01;;;;;;;12.20;6.93;;;6.40;99.90;;;;;;4892612;29;20214;-70
2023/03/07 06:18:27;;;;;;;9.70;7.50;;;6.40;99.90;;;;;;4889315;29;20259;-69
2023/03/07 06:20:57;;;;;;;13.60;8.77;;;6.40;99.90;;;;;;4894804;29;20185;-70
2023/03/07 06:23:24;;;;;;;8.33;7.10;;;6.20;99.90;;;;;;4893616;29;20560;-69
2023/03/07 06:25:50;;;;;;;11.27;7.87;;;6.20;99.90;;;;;;4878960;29;20774;-69
2023/03/07 06:28:15;;;;;;;9.40;7.83;;;6.20;99.90;;;;;;4896854;29;20530;-69
2023/03/07 06:30:41;;;;;;;9.57;7.13;;;6.30;99.90;;;;;;4894229;29;20224;-70
2023/03/07 06:33:06;;;;;;;9.53;7.97;;;6.30;99.90;;;;;;4893243;29;20651;-70
2023/03/07 06:35:32;;;;;;;10.27;8.30;;;6.20;99.90;;;;;;4889295;29;20224;-70
2023/03/07 06:37:58;;;;;;;12.00;8.37;;;6.20;99.90;;;;;;4891039;29;20211;-70
2023/03/07 06:40:23;;;;;;;9.00;7.47;;;6.20;99.90;;;;;;4883126;29;20204;-69
2023/03/07 06:42:51;;;;;;;12.00;7.57;;;6.20;99.90;;;;;;4892291;29;20198;-69
2023/03/07 06:45:16;;;;;;;8.47;6.43;;;6.30;99.90;;;;;;4887915;29;20197;-69
2023/03/07 06:47:42;;;;;;;13.90;8.60;;;6.10;99.90;;;;;;4896660;29;20503;-69
2023/03/07 06:50:08;;;;;;;11.23;8.43;;;6.20;99.90;;;;;;4891422;29;20259;-70
2023/03/07 06:52:33;;;;;;;10.30;7.80;;;6.10;99.90;;;;;;4896364;29;20188;-72
2023/03/07 06:55:00;;;;;;;9.00;7.10;;;6.20;99.90;;;;;;4893674;29;20491;-72
2023/03/07 06:57:25;;;;;;;8.43;7.30;;;6.10;99.90;;;;;;4893270;29;20181;-72
2023/03/07 06:59:51;;;;;;;11.10;8.70;;;6.10;99.90;;;;;;4896025;29;20995;-72
2023/03/07 07:02:16;;;;;;;11.73;8.37;;;6.10;99.90;;;;;;4896498;29;20210;-72
2023/03/07 07:04:42;;;;;;;8.80;7.90;;;6.20;99.90;;;;;;4895545;29;20640;-72
2023/03/07 07:07:07;;;;;;;9.10;7.73;;;6.20;99.90;;;;;;4894511;29;20215;-72
2023/03/07 07:09:33;;;;;;;11.57;8.40;;;6.30;99.90;;;;;;4896005;29;20192;-72
2023/03/07 07:11:59;;;;;;;12.17;8.37;;;6.20;99.90;;;;;;4891193;29;20185;-71
2023/03/07 07:14:24;;;;;;;10.37;8.43;;;6.20;99.90;;;;;;4892741;29;20244;-70
2023/03/07 07:16:50;;;;;;;12.47;8.73;;;6.20;99.90;;;;;;4896394;29;20176;-70
2023/03/07 07:19:16;;;;;;;10.13;8.93;;;6.20;99.90;;;;;;4895043;29;20529;-71
2023/03/07 07:21:41;;;;;;;9.73;8.73;;;6.20;99.90;;;;;;4895148;29;20191;-71
2023/03/07 07:24:10;;;;;;;11.27;9.10;;;6.30;99.90;;;;;;4894768;29;20195;-71
2023/03/07 07:26:36;;;;;;;12.60;8.90;;;6.40;99.90;;;;;;4894439;29;20181;-70
2023/03/07 07:29:02;;;;;;;10.20;8.63;;;6.40;99.90;;;;;;4890141;29;20785;-70
2023/03/07 07:31:27;;;;;;;9.93;8.37;;;6.40;99.90;;;;;;4893409;29;20691;-70
2023/03/07 07:33:53;;;;;;;11.00;7.50;;;6.30;99.90;;;;;;4896154;29;20212;-70
2023/03/07 07:36:19;;;;;;;10.97;8.53;;;6.20;99.90;;;;;;4890787;29;20520;-69
2023/03/07 07:38:44;;;;;;;11.83;7.80;;;6.20;99.90;;;;;;4889867;29;20554;-70
2023/03/07 07:41:10;;;;;;;9.87;7.47;;;6.30;99.90;;;;;;4888588;29;20672;-68
2023/03/07 07:43:35;;;;;;;8.50;7.57;;;6.30;99.90;;;;;;4889978;29;20196;-68
2023/03/07 07:46:04;;;;;;;11.00;8.10;;;6.20;99.90;;;;;;4882880;29;20271;-68
2023/03/07 07:48:30;;;;;;;9.57;6.97;;;6.40;99.90;;;;;;4890807;29;20181;-69
2023/03/07 07:51:00;;;;;;;10.10;7.90;;;6.40;99.90;;;;;;4887331;29;20461;-69
2023/03/07 07:53:26;;;;;;;8.60;7.03;;;6.40;99.90;;;;;;4889668;29;20563;-69
2023/03/07 07:55:51;;;;;;;8.67;7.37;;;6.40;99.90;;;;;;4890258;29;20557;-69
2023/03/07 07:58:17;;;;;;;7.77;6.77;;;6.40;99.90;;;;;;4891116;29;20211;-69
2023/03/07 08:00:42;;;;;;;9.00;7.47;;;6.40;99.90;;;;;;4887639;29;20540;-69
2023/03/07 08:03:08;;;;;;;9.13;7.37;;;6.40;99.90;;;;;;4888292;29;20188;-69
2023/03/07 08:05:33;;;;;;;8.90;6.83;;;6.40;99.90;;;;;;4894647;29;20193;-69
2023/03/07 08:07:59;;;;;;;12.30;7.50;;;6.40;99.90;;;;;;4890611;29;20201;-69
2023/03/07 08:10:25;;;;;;;10.20;8.23;;;6.40;99.90;;;;;;4883773;29;20283;-69
2023/03/07 08:12:50;;;;;;;7.77;6.93;;;6.40;99.90;;;;;;4889483;29;20536;-69
2023/03/07 08:15:17;;;;;;;11.10;7.87;;;6.40;99.90;;;;;;4890868;29;20215;-69
2023/03/07 08:17:43;;;;;;;9.50;7.37;;;6.50;99.90;;;;;;4886349;29;20552;-69
2023/03/07 08:20:09;;;;;;;11.60;8.60;;;6.40;99.90;;;;;;4884466;29;20440;-69
2023/03/07 08:22:36;;;;;;;9.03;7.20;;;6.40;99.90;;;;;;4889162;29;20433;-69
2023/03/07 08:25:03;;;;;;;11.17;8.23;;;6.40;99.90;;;;;;4884211;29;20504;-69
2023/03/07 08:27:29;;;;;;;11.53;8.80;;;6.40;99.90;;;;;;4882965;29;20527;-69
2023/03/07 08:29:55;;;;;;;12.47;9.00;;;6.20;99.90;;;;;;4890571;29;20527;-69
2023/03/07 08:32:21;;;;;;;14.83;8.80;;;6.20;99.90;;;;;;4891678;29;20240;-69
2023/03/07 08:34:46;;;;;;;12.33;8.50;;;6.30;99.90;;;;;;4885704;29;20480;-69
2023/03/07 08:37:12;;;;;;;12.67;8.30;;;6.40;99.90;;;;;;4886577;29;20214;-69
2023/03/07 08:39:37;;;;;;;12.70;8.53;;;6.50;99.90;;;;;;4888624;29;20280;-69
2023/03/07 08:42:03;;;;;;;10.33;8.60;;;6.40;99.90;;;;;;4884067;29;20208;-69
2023/03/07 08:44:28;;;;;;;11.67;8.17;;;6.40;99.90;;;;;;4890903;29;20607;-69
2023/03/07 08:46:54;;;;;;;10.17;7.10;;;6.40;99.90;;;;;;4890166;29;20556;-69
2023/03/07 08:49:20;;;;;;;11.10;8.77;;;6.50;99.90;;;;;;4890320;29;20188;-69
2023/03/07 08:51:48;;;;;;;11.80;8.10;;;6.50;99.90;;;;;;4883252;29;20202;-69
2023/03/07 08:54:13;;;;;;;11.20;8.97;;;6.50;99.90;;;;;;4888617;29;20228;-69
2023/03/07 08:56:39;;;;;;;10.93;7.10;;;6.50;99.90;;;;;;4886298;29;20442;-69
2023/03/07 08:59:04;;;;;;;9.57;7.90;;;6.50;99.90;;;;;;4884739;29;20189;-69
2023/03/07 09:01:30;;;;;;;9.67;7.40;;;6.60;99.90;;;;;;4888073;29;20543;-69
2023/03/07 09:03:56;;;;;;;10.83;8.13;;;6.60;99.90;;;;;;4895800;29;20255;-69
2023/03/07 09:06:21;;;;;;;8.00;6.57;;;6.60;99.90;;;;;;4891747;29;20199;-69
2023/03/07 09:08:49;;;;;;;9.57;6.77;;;6.70;99.90;;;;;;4887526;29;20682;-69
2023/03/07 09:11:15;;;;;;;11.67;7.27;;;6.70;99.90;;;;;;4894845;29;20263;-69
2023/03/07 09:13:40;;;;;;;9.27;6.97;;;6.60;99.90;;;;;;4888452;29;20488;-69
2023/03/07 09:16:06;;;;;;;11.17;7.90;;;6.60;99.90;;;;;;4884227;29;20998;-70
2023/03/07 09:18:33;;;;;;;11.43;7.77;;;6.50;99.90;;;;;;4896435;29;20184;-70
2023/03/07 09:21:00;;;;;;;8.73;6.33;;;6.50;99.90;;;;;;4879501;29;20448;-71
2023/03/07 09:23:25;;;;;;;8.33;7.00;;;6.50;99.90;;;;;;4894491;29;20436;-72
2023/03/07 09:25:51;;;;;;;7.10;6.20;;;6.50;99.90;;;;;;4895902;29;20455;-71
2023/03/07 09:28:16;;;;;;;8.27;7.33;;;6.50;99.90;;;;;;4897217;29;20280;-70
2023/03/07 09:30:42;;;;;;;6.87;6.20;;;6.50;99.90;;;;;;4895962;29;20248;-71
2023/03/07 09:33:08;;;;;;;7.90;6.73;;;6.50;99.90;;;;;;4894686;29;20189;-73
2023/03/07 09:35:33;;;;;;;7.70;5.90;;;6.30;99.90;;;;;;4879356;29;20192;-71
2023/03/07 09:37:59;;;;;;;9.00;7.50;;;6.30;99.90;;;;;;4896001;29;20557;-72
2023/03/07 09:40:26;;;;;;;7.10;6.13;;;6.20;99.90;;;;;;4893725;29;20195;-71
2023/03/07 09:43:10;;;;;;;9.00;6.50;;;6.20;99.90;;;;;;4896122;29;20643;-70
2023/03/07 09:45:36;;;;;;;7.27;5.83;;;6.20;99.90;;;;;;4895940;29;20425;-72
2023/03/07 09:48:26;;;;;;;7.00;5.60;;;6.10;99.90;;;;;;4896351;29;20455;-71
2023/03/07 09:50:56;;;;;;;5.97;5.37;;;6.10;99.90;;;;;;4894952;29;20279;-69
2023/03/07 09:53:41;;;;;;;5.43;4.93;;;6.10;99.90;;;;;;4892096;29;20821;-71
2023/03/07 09:56:39;;;;;;;4.87;4.37;;;6.00;99.90;;;;;;4889340;29;20449;-69
2023/03/07 09:59:21;;;;;;;4.23;3.57;;;6.00;99.90;;;;;;4893427;29;20444;-69
2023/03/07 10:01:57;;;;;;;4.00;3.60;;;6.00;99.90;;;;;;4890298;29;21066;-69
2023/03/07 10:04:39;;;;;;;3.70;3.40;;;6.00;99.90;;;;;;4892228;29;20604;-70
2023/03/07 10:07:08;;;;;;;3.30;3.00;;;5.90;99.90;;;;;;4896024;29;20452;-69
2023/03/07 10:09:34;;;;;;;3.73;3.43;;;5.90;99.90;;;;;;4892645;29;20437;-70
2023/03/07 10:12:17;;;;;;;4.83;4.33;;;5.80;99.90;;;;;;4891528;29;20453;-70
2023/03/07 10:14:45;;;;;;;3.80;3.40;;;5.70;99.90;;;;;;4887364;29;20368;-69
2023/03/07 10:17:47;;;;;;;3.83;3.40;;;5.70;99.90;;;;;;4890138;29;20858;-69
2023/03/07 10:20:45;;;;;;;3.50;3.20;;;5.70;99.90;;;;;;4885277;29;20440;-70
2023/03/07 10:23:45;;;;;;;3.30;3.00;;;5.70;99.90;;;;;;4894931;29;20429;-70
2023/03/07 10:26:35;;;;;;;3.60;3.27;;;5.70;99.90;;;;;;4889714;29;20460;-69
2023/03/07 10:29:09;;;;;;;3.47;3.17;;;5.70;99.90;;;;;;4851752;29;20446;-70
2023/03/07 10:31:43;;;;;;;3.40;3.10;;;5.60;99.90;;;;;;4886378;29;20504;-69
2023/03/07 10:34:21;;;;;;;4.27;3.87;;;5.60;99.90;;;;;;4890574;29;20520;-69
2023/03/07 10:36:49;;;;;;;4.27;3.93;;;5.60;99.90;;;;;;4893877;29;20444;-69
2023/03/07 10:39:40;;;;;;;4.40;4.00;;;5.60;99.90;;;;;;4890867;29;20508;-69
2023/03/07 10:42:13;;;;;;;4.30;3.13;;;5.60;99.90;;;;;;4892062;29;20469;-68
2023/03/07 10:44:39;;;;;;;4.23;3.20;;;5.60;99.90;;;;;;4888013;29;20432;-69
2023/03/07 10:47:05;;;;;;;4.03;3.63;;;5.60;99.90;;;;;;4887876;29;20436;-69
2023/03/07 10:49:36;;;;;;;4.63;3.63;;;5.60;99.90;;;;;;4892148;29;20992;-69
2023/03/07 10:52:25;;;;;;;4.53;3.80;;;5.60;99.90;;;;;;4887449;29;20189;-69
2023/03/07 10:54:51;;;;;;;7.50;4.30;;;5.70;99.90;;;;;;4888406;29;20524;-69
2023/03/07 10:57:18;;;;;;;6.20;5.30;;;5.70;99.90;;;;;;4892041;29;20464;-69
2023/03/07 10:59:47;;;;;;;5.07;4.50;;;5.60;99.90;;;;;;4891861;29;20667;-69
2023/03/07 11:02:35;;;;;;;5.60;4.57;;;5.60;99.90;;;;;;4887288;29;20536;-70
2023/03/07 11:05:03;;;;;;;6.10;5.20;;;5.60;99.90;;;;;;4888260;29;20440;-69
2023/03/07 11:07:28;;;;;;;7.13;5.93;;;5.60;99.90;;;;;;4889951;29;20444;-69
2023/03/07 11:09:56;;;;;;;5.87;5.10;;;5.60;99.90;;;;;;4884042;29;20440;-69
2023/03/07 11:12:24;;;;;;;5.77;5.23;;;5.60;99.90;;;;;;4889857;29;20185;-69
2023/03/07 11:14:51;;;;;;;5.00;4.53;;;5.70;99.90;;;;;;4895222;29;20485;-71
2023/03/07 11:17:23;;;;;;;4.60;4.20;;;5.70;99.90;;;;;;4894830;29;20437;-71
2023/03/07 11:19:56;;;;;;;6.50;5.50;;;5.70;99.90;;;;;;4889225;29;20492;-71
2023/03/07 11:22:32;;;;;;;6.23;4.33;;;5.70;99.90;;;;;;4892708;29;20432;-71
2023/03/07 11:25:02;;;;;;;5.90;4.77;;;5.70;99.90;;;;;;4892531;29;20440;-71
2023/03/07 11:27:45;;;;;;;6.10;4.70;;;5.70;99.90;;;;;;4892028;29;20445;-71
2023/03/07 11:30:34;;;;;;;6.40;5.10;;;5.70;99.90;;;;;;4895003;29;20455;-71
2023/03/07 11:33:16;;;;;;;6.00;5.00;;;5.70;99.90;;;;;;4859585;29;20453;-72
2023/03/07 11:35:57;;;;;;;5.70;4.93;;;5.70;99.90;;;;;;4892406;29;20441;-72
2023/03/07 11:39:06;;;;;;;7.20;5.87;;;5.70;99.90;;;;;;4892522;29;20497;-72
2023/03/07 11:41:36;;;;;;;11.50;5.70;;;5.70;99.90;;;;;;4892627;29;20804;-72
2023/03/07 11:44:14;;;;;;;7.73;5.10;;;5.70;99.90;;;;;;4891223;29;20464;-72
2023/03/07 11:46:42;;;;;;;10.13;5.97;;;5.70;99.90;;;;;;4895421;29;20526;-72
2023/03/07 11:49:33;;;;;;;8.03;5.63;;;5.80;99.90;;;;;;4895449;29;20924;-72
2023/03/07 11:52:17;;;;;;;7.67;5.73;;;5.70;99.90;;;;;;4893082;29;20452;-72
2023/03/07 11:55:15;;;;;;;8.50;6.87;;;5.80;99.90;;;;;;4892834;29;20527;-72
2023/03/07 11:58:24;;;;;;;7.90;6.37;;;5.80;99.90;;;;;;4860053;29;20562;-71
2023/03/07 12:01:09;;;;;;;9.77;6.93;;;5.80;99.90;;;;;;4873905;29;20448;-72
2023/03/07 12:03:49;;;;;;;7.03;6.33;;;5.80;99.90;;;;;;4888552;29;20445;-73
2023/03/07 12:06:33;;;;;;;9.03;6.93;;;5.80;99.90;;;;;;4894458;29;20436;-72
2023/03/07 12:09:13;;;;;;;7.50;6.70;;;5.80;99.90;;;;;;4890453;29;20523;-72
2023/03/07 12:11:55;;;;;;;7.57;6.87;;;5.80;99.90;;;;;;4894146;29;20441;-72
2023/03/07 12:15:14;;;;;;;12.50;7.60;;;5.90;99.90;;;;;;4891248;29;20501;-72
2023/03/07 12:18:11;;;;;;;9.30;6.63;;;5.90;99.90;;;;;;4883277;29;20436;-72
2023/03/07 12:21:01;;;;;;;6.87;6.10;;;5.80;99.90;;;;;;4894464;29;20439;-71
2023/03/07 12:23:37;;;;;;;5.67;5.00;;;5.70;99.90;;;;;;4893416;29;20444;-71
2023/03/07 12:26:19;;;;;;;7.83;5.57;;;5.70;99.90;;;;;;4890095;29;20975;-71
2023/03/07 12:28:52;;;;;;;9.93;5.27;;;5.80;99.90;;;;;;4888106;29;20444;-72
2023/03/07 12:31:24;;;;;;;6.00;5.37;;;5.80;99.90;;;;;;4890161;29;20531;-72
2023/03/07 12:34:08;;;;;;;8.90;5.43;;;5.90;99.90;;;;;;4886402;29;20803;-72
2023/03/07 12:36:43;;;;;;;9.50;5.00;;;6.00;99.90;;;;;;4887930;29;21063;-71
2023/03/07 12:39:30;;;;;;;6.97;6.27;;;6.00;99.90;;;;;;4890028;29;20528;-72
2023/03/07 12:42:34;;;;;;;6.68;5.90;;;5.90;99.90;;;;;;4892015;29;20469;-73
2023/03/07 12:45:08;;;;;;;6.60;5.50;;;5.90;99.90;;;;;;4893856;29;20196;-73
2023/03/07 12:47:34;;;;;;;5.53;5.03;;;6.00;99.90;;;;;;4894361;29;20540;-73
2023/03/07 12:50:09;;;;;;;6.40;5.50;;;6.00;99.90;;;;;;4887146;29;20524;-73
2023/03/07 12:52:39;;;;;;;11.97;5.37;;;6.00;99.90;;;;;;4898308;29;20220;-72
2023/03/07 12:55:21;;;;;;;8.97;6.40;;;6.00;99.90;;;;;;4890740;29;20523;-75
2023/03/07 12:58:12;;;;;;;10.90;6.60;;;5.90;99.90;;;;;;4889316;29;20433;-74
2023/03/07 13:00:42;;;;;;;7.07;5.73;;;6.00;99.90;;;;;;4893952;29;20529;-74
2023/03/07 13:03:14;;;;;;;7.70;5.60;;;6.00;99.90;;;;;;4892252;29;20477;-74
2023/03/07 13:05:42;;;;;;;6.43;5.70;;;6.10;99.90;;;;;;4891633;29;20460;-74
2023/03/07 13:08:17;;;;;;;8.37;6.07;;;6.10;99.90;;;;;;4891137;29;20464;-74
2023/03/07 13:10:44;;;;;;;8.10;6.23;;;6.00;99.90;;;;;;4891613;29;20475;-74
2023/03/07 13:13:41;;;;;;;7.40;5.87;;;6.00;99.90;;;;;;4885581;29;20443;-74
2023/03/07 13:16:09;;;;;;;8.20;5.33;;;6.00;99.90;;;;;;4891343;29;20449;-73
2023/03/07 13:18:35;;;;;;;6.27;5.53;;;6.00;99.90;;;;;;4892222;29;20999;-73
2023/03/07 13:21:10;;;;;;;6.10;5.50;;;6.10;99.90;;;;;;4895325;29;20524;-74
2023/03/07 13:23:36;;;;;;;5.53;5.03;;;6.00;99.90;;;;;;4892511;29;20180;-74
2023/03/07 13:26:04;;;;;;;7.23;6.03;;;6.00;99.90;;;;;;4896570;29;20468;-72
2023/03/07 13:28:39;;;;;;;6.27;5.63;;;6.00;99.90;;;;;;4891675;29;20653;-73
2023/03/07 13:31:25;;;;;;;14.33;6.23;;;6.10;99.90;;;;;;4889879;29;20563;-73
2023/03/07 13:33:51;;;;;;;6.40;5.33;;;6.00;99.90;;;;;;4892537;29;20486;-72
2023/03/07 13:36:37;;;;;;;5.83;5.27;;;6.10;99.90;;;;;;4887612;29;20825;-73
2023/03/07 13:39:23;;;;;;;6.93;4.97;;;6.00;99.90;;;;;;4893899;29;20808;-72
2023/03/07 13:41:50;;;;;;;8.70;6.00;;;6.00;99.90;;;;;;4891500;29;20449;-73
2023/03/07 13:44:41;;;;;;;6.60;5.80;;;6.00;99.90;;;;;;4891918;29;20452;-73
2023/03/07 13:47:39;;;;;;;8.30;4.40;;;6.00;99.90;;;;;;4884707;29;20535;-72
2023/03/07 13:50:33;;;;;;;11.47;6.17;;;6.10;99.90;;;;;;4889866;29;20850;-77
2023/03/07 13:53:10;;;;;;;5.87;4.93;;;6.30;99.90;;;;;;4887121;29;20489;-77
2023/03/07 13:55:45;;;;;;;9.40;5.80;;;6.20;99.90;;;;;;4883287;29;20488;-78
2023/03/07 13:58:26;;;;;;;6.37;5.67;;;6.20;99.90;;;;;;4895681;29;20497;-77
2023/03/07 14:00:59;;;;;;;8.60;6.00;;;6.10;99.90;;;;;;4896705;29;20792;-76
2023/03/07 14:03:37;;;;;;;7.70;5.43;;;6.10;99.90;;;;;;4887959;29;20535;-80
2023/03/07 14:06:14;;;;;;;10.23;6.67;;;6.10;99.90;;;;;;4893458;29;20802;-78
2023/03/07 14:08:40;;;;;;;9.50;6.93;;;6.10;99.90;;;;;;4893656;29;20935;-76
2023/03/07 14:11:16;;;;;;;7.73;6.43;;;6.00;99.90;;;;;;4892814;29;20478;-76
2023/03/07 14:14:20;;;;;;;9.30;6.60;;;6.00;99.90;;;;;;4890231;29;20562;-76
2023/03/07 14:16:57;;;;;;;8.90;7.20;;;6.10;99.90;;;;;;4882083;29;20452;-80
2023/03/07 14:19:59;;;;;;;8.50;7.20;;;6.00;99.90;;;;;;4893890;29;20448;-79
2023/03/07 14:22:30;;;;;;;12.37;7.83;;;5.80;99.90;;;;;;4892984;29;20437;-79
2023/03/07 14:25:39;;;;;;;11.40;7.50;;;5.80;99.90;;;;;;4895526;29;20480;-79
2023/03/07 14:28:45;;;;;;;10.40;7.73;;;5.80;99.90;;;;;;4864557;29;20453;-78
2023/03/07 14:31:24;;;;;;;9.97;7.13;;;5.70;99.90;;;;;;4859360;29;20484;-77
2023/03/07 14:33:50;;;;;;;10.60;7.83;;;5.70;99.90;;;;;;4894314;29;20523;-79
2023/03/07 14:36:20;;;;;;;13.03;8.10;;;5.80;99.90;;;;;;4893468;29;20480;-78
2023/03/07 14:38:47;;;;;;;13.37;8.80;;;5.80;99.90;;;;;;4894960;29;20432;-79
2023/03/07 14:41:38;;;;;;;11.03;7.63;;;5.70;99.90;;;;;;4894840;29;20437;-78
2023/03/07 14:44:31;;;;;;;12.00;8.53;;;5.80;99.90;;;;;;4887844;29;20436;-77
2023/03/07 14:47:24;;;;;;;10.63;7.33;;;5.90;99.90;;;;;;4890623;29;20486;-78
2023/03/07 14:49:54;;;;;;;17.00;8.57;;;5.80;99.90;;;;;;4884209;29;20772;-78
2023/03/07 14:52:22;;;;;;;11.17;7.93;;;5.80;99.90;;;;;;4886930;29;20433;-77
2023/03/07 14:54:51;;;;;;;13.20;8.80;;;5.90;99.90;;;;;;4888420;29;20491;-77
2023/03/07 14:57:44;;;;;;;10.27;7.23;;;5.90;99.90;;;;;;4895811;29;20456;-78
2023/03/07 15:00:13;;;;;;;10.23;7.70;;;5.90;99.90;;;;;;4892906;29;20434;-78
2023/03/07 15:02:52;;;;;;;12.57;8.60;;;6.00;99.90;;;;;;4893954;29;20481;-77
2023/03/07 15:05:28;;;;;;;12.63;9.47;;;6.00;99.90;;;;;;4876676;29;20931;-79
2023/03/07 15:07:54;;;;;;;12.30;9.10;;;5.90;99.90;;;;;;4889806;29;20884;-77
2023/03/07 15:10:30;;;;;;;11.93;9.13;;;5.90;99.90;;;;;;4890934;29;20492;-78
2023/03/07 15:12:56;;;;;;;14.00;8.70;;;5.90;99.90;;;;;;4890706;29;20929;-80
2023/03/07 15:15:38;;;;;;;12.43;8.20;;;6.00;99.90;;;;;;4887188;29;20572;-80
2023/03/07 15:18:17;;;;;;;12.47;8.47;;;6.00;99.90;;;;;;4883495;29;20432;-81
2023/03/07 15:20:43;;;;;;;12.70;8.53;;;5.90;99.90;;;;;;4889853;29;20496;-74
2023/03/07 15:23:21;;;;;;;14.40;10.17;;;5.80;99.90;;;;;;4884005;29;20433;-75